Jennerstown, Pennsylvania
Current Conditions -  °F | °C
As of 7:54 AM on Saturday 25 Oct 2014 (Local Time) from KJST Reporting Station
Scattered Clouds Scattered Clouds  
Wind Chill: 43°   Ceiling: Unl
Heat Index: 48°   Visibility: 10mi
Dew Point: 36°   Wind: 12mph
Humidity: 63%   Direction: 260°W
Pressure: 29.94"   Gusts: NA
Location:  40.16°N, 79.07°W
Report Text: KJST 251154Z AUTO 26010KT 10SM SCT035 09/02 A2994 RMK AO2 SLP148 T00890022 10089 20061 55003
Loading
Personal Weather Stations






























Interactive Weather Map
Tropical Storm Tracking
New forecast layout! Learn more

10-Day Weather Forecast

Advertisements
Track Severe Weather on mobile